Pagrindinis puslapis
METAR-TAF:

METAR-TAF

Oro uostai :

Oskemenas, Kazachija

platuma: 50-02-10N, ilguma: 082-29-39E, Aukštis: 286 m

Dabartinis oras

Ataskaita buvo paskelbta 44 minutes, ne 06:00 UTC
Vėjas 21 kt iš Šiaurės/Šiaurės Vakarų
Temperatūra 18°C
Drėgmė 52%
Slėgis 1014 hPa
Matomumas 10 km arba daugiau

METAR: UASK 190600Z 33011MPS 9999 NSC 18/08 Q1014 NOSIG RMK QFE735/0980

Laikas: 12:44 (06:44 UTC)

Prognozė

Ataskaita buvo paskelbta 1 valandą ir 42 minutes, ne 05:02 UTC
Prognozė galioja nuo 19 metu 06 UTC su 19 metu 15 UTC
Vėjas 19 kt iš Šiaurės/Šiaurės Vakarų
Matomumas 10 km arba daugiau
Laikinai
nuo 19 metu 06 UTC su 19 metu 12 UTC
Vėjas 25 kt iš Šiaurės Vakarų su gūsio iki 35 kt
Išsisklaidę debesys ne aukštis 10000 ft

TAF: UASK 190502Z 1906/1915 34010MPS 9999 NSC TEMPO 1906/1912 32013G18MPS SCT100

Orai ataskaitas ir orų prognozės (METAR, TAF).

turimą stotys yra geltonos ir raudonos taškus žemėlapyje.

Perkelti pele per norėdami pamatyti stoties vardą.

Tada spustelėkite, norėdami matyti oro stebėjimo ir prognozės.

Norėdami pakeisti žemėlapį: spustelėkite ant žalios mygtukų su juodo kryžiaus žemyn,; žalią mygtuką su brūkšneliu, jei norite nutolinti; arba žalių rodyklių gretimoms žemėlapius.


METAR-TAF: